sensor_id;sensor_type;location;lat;lon;timestamp;pressure;altitude;pressure_sealevel;temperature;humidity
20115;BME280;10218;42.874;25.320;2022-07-06T00:00:07;97115.41;;;23.25;100.00
20115;BME280;10218;42.874;25.320;2022-07-06T00:02:36;97118.25;;;23.35;100.00
20115;BME280;10218;42.874;25.320;2022-07-06T00:05:04;97106.97;;;23.49;100.00
20115;BME280;10218;42.874;25.320;2022-07-06T00:07:31;97115.47;;;23.30;100.00
20115;BME280;10218;42.874;25.320;2022-07-06T00:09:58;97108.72;;;23.16;100.00
20115;BME280;10218;42.874;25.320;2022-07-06T00:12:25;97102.38;;;23.32;100.00
20115;BME280;10218;42.874;25.320;2022-07-06T00:14:52;97095.91;;;23.17;100.00
20115;BME280;10218;42.874;25.320;2022-07-06T00:17:19;97095.88;;;23.55;100.00
20115;BME280;10218;42.874;25.320;2022-07-06T00:19:47;97094.22;;;23.54;100.00
20115;BME280;10218;42.874;25.320;2022-07-06T00:22:14;97095.25;;;23.48;100.00
20115;BME280;10218;42.874;25.320;2022-07-06T00:24:41;97096.22;;;23.42;100.00
20115;BME280;10218;42.874;25.320;2022-07-06T00:27:08;97087.69;;;23.33;100.00
20115;BME280;10218;42.874;25.320;2022-07-06T00:29:35;97079.16;;;23.47;100.00
20115;BME280;10218;42.874;25.320;2022-07-06T00:32:03;97084.94;;;23.12;100.00
20115;BME280;10218;42.874;25.320;2022-07-06T00:34:30;97075.00;;;23.44;100.00
20115;BME280;10218;42.874;25.320;2022-07-06T00:36:57;97072.50;;;23.42;100.00
20115;BME280;10218;42.874;25.320;2022-07-06T00:39:24;97069.50;;;23.17;100.00
20115;BME280;10218;42.874;25.320;2022-07-06T00:41:56;97072.09;;;23.51;100.00
20115;BME280;10218;42.874;25.320;2022-07-06T00:44:23;97065.97;;;23.43;100.00
20115;BME280;10218;42.874;25.320;2022-07-06T00:46:51;97055.84;;;23.39;100.00
20115;BME280;10218;42.874;25.320;2022-07-06T00:49:18;97064.84;;;23.39;100.00
20115;BME280;10218;42.874;25.320;2022-07-06T00:52:04;97057.69;;;23.33;100.00
20115;BME280;10218;42.874;25.320;2022-07-06T00:54:32;97054.47;;;23.36;100.00
20115;BME280;10218;42.874;25.320;2022-07-06T00:56:59;97050.56;;;22.84;100.00
20115;BME280;10218;42.874;25.320;2022-07-06T00:59:27;97035.87;;;22.85;100.00
20115;BME280;10218;42.874;25.320;2022-07-06T01:01:55;97043.13;;;23.01;100.00
20115;BME280;10218;42.874;25.320;2022-07-06T01:04:22;97031.91;;;23.19;100.00
20115;BME280;10218;42.874;25.320;2022-07-06T01:06:49;97034.06;;;23.17;100.00
20115;BME280;10218;42.874;25.320;2022-07-06T01:09:16;97033.47;;;23.37;100.00
20115;BME280;10218;42.874;25.320;2022-07-06T01:11:43;97032.56;;;23.53;100.00
20115;BME280;10218;42.874;25.320;2022-07-06T01:14:12;97028.34;;;23.40;100.00
20115;BME280;10218;42.874;25.320;2022-07-06T01:16:41;97026.09;;;23.37;100.00
20115;BME280;10218;42.874;25.320;2022-07-06T01:19:08;97021.13;;;22.86;100.00
20115;BME280;10218;42.874;25.320;2022-07-06T01:21:38;97020.47;;;22.95;100.00
20115;BME280;10218;42.874;25.320;2022-07-06T01:24:05;97014.69;;;22.92;100.00
20115;BME280;10218;42.874;25.320;2022-07-06T01:26:32;97014.56;;;22.82;100.00
20115;BME280;10218;42.874;25.320;2022-07-06T01:28:59;97007.56;;;23.34;100.00
20115;BME280;10218;42.874;25.320;2022-07-06T01:31:26;97001.66;;;22.94;100.00
20115;BME280;10218;42.874;25.320;2022-07-06T01:33:56;97000.63;;;23.00;100.00
20115;BME280;10218;42.874;25.320;2022-07-06T01:36:24;97002.12;;;22.91;100.00
20115;BME280;10218;42.874;25.320;2022-07-06T01:38:53;96996.63;;;22.64;100.00
20115;BME280;10218;42.874;25.320;2022-07-06T01:41:21;96997.16;;;22.44;100.00
20115;BME280;10218;42.874;25.320;2022-07-06T01:43:49;96996.75;;;22.96;100.00
20115;BME280;10218;42.874;25.320;2022-07-06T01:46:16;96998.81;;;22.67;100.00
20115;BME280;10218;42.874;25.320;2022-07-06T01:48:43;96995.25;;;22.83;100.00
20115;BME280;10218;42.874;25.320;2022-07-06T01:51:12;96996.09;;;22.67;100.00
20115;BME280;10218;42.874;25.320;2022-07-06T01:53:39;96998.03;;;22.28;100.00
20115;BME280;10218;42.874;25.320;2022-07-06T01:56:07;96995.63;;;22.15;100.00
20115;BME280;10218;42.874;25.320;2022-07-06T01:58:35;97000.19;;;22.09;100.00
20115;BME280;10218;42.874;25.320;2022-07-06T02:01:16;96998.47;;;22.42;100.00
20115;BME280;10218;42.874;25.320;2022-07-06T02:03:45;96991.41;;;22.62;100.00
20115;BME280;10218;42.874;25.320;2022-07-06T02:06:12;96996.28;;;22.39;100.00
20115;BME280;10218;42.874;25.320;2022-07-06T02:08:41;96992.81;;;22.27;100.00
20115;BME280;10218;42.874;25.320;2022-07-06T02:11:09;96991.59;;;22.34;100.00
20115;BME280;10218;42.874;25.320;2022-07-06T02:13:37;96991.69;;;22.06;100.00
20115;BME280;10218;42.874;25.320;2022-07-06T02:16:05;96991.44;;;22.07;100.00
20115;BME280;10218;42.874;25.320;2022-07-06T02:18:32;96979.75;;;22.07;100.00
20115;BME280;10218;42.874;25.320;2022-07-06T02:21:00;96989.72;;;22.18;100.00
20115;BME280;10218;42.874;25.320;2022-07-06T02:23:27;96980.81;;;22.06;100.00
20115;BME280;10218;42.874;25.320;2022-07-06T02:25:54;96975.53;;;21.83;100.00
20115;BME280;10218;42.874;25.320;2022-07-06T02:28:22;96991.63;;;22.01;100.00
20115;BME280;10218;42.874;25.320;2022-07-06T02:30:50;96975.09;;;21.91;100.00
20115;BME280;10218;42.874;25.320;2022-07-06T02:33:17;96975.59;;;21.71;100.00
20115;BME280;10218;42.874;25.320;2022-07-06T02:35:45;96968.84;;;21.57;100.00
20115;BME280;10218;42.874;25.320;2022-07-06T02:38:13;96974.31;;;21.73;100.00
20115;BME280;10218;42.874;25.320;2022-07-06T02:40:40;96974.72;;;21.20;100.00
20115;BME280;10218;42.874;25.320;2022-07-06T02:43:07;96979.66;;;21.23;100.00
20115;BME280;10218;42.874;25.320;2022-07-06T02:45:35;96977.38;;;21.32;100.00
20115;BME280;10218;42.874;25.320;2022-07-06T02:48:02;96969.16;;;21.44;100.00
20115;BME280;10218;42.874;25.320;2022-07-06T02:50:30;96971.88;;;21.27;100.00
20115;BME280;10218;42.874;25.320;2022-07-06T02:52:57;96978.44;;;21.03;100.00
20115;BME280;10218;42.874;25.320;2022-07-06T02:55:25;96986.00;;;21.01;100.00
20115;BME280;10218;42.874;25.320;2022-07-06T02:57:53;96970.56;;;20.61;100.00
20115;BME280;10218;42.874;25.320;2022-07-06T03:00:21;96969.56;;;20.67;100.00
20115;BME280;10218;42.874;25.320;2022-07-06T03:02:49;96977.78;;;20.44;100.00
20115;BME280;10218;42.874;25.320;2022-07-06T03:05:17;96972.22;;;20.27;100.00
20115;BME280;10218;42.874;25.320;2022-07-06T03:07:44;96979.88;;;20.54;100.00
20115;BME280;10218;42.874;25.320;2022-07-06T03:10:11;96980.38;;;20.39;100.00
20115;BME280;10218;42.874;25.320;2022-07-06T03:12:39;96992.06;;;20.39;100.00
20115;BME280;10218;42.874;25.320;2022-07-06T03:15:07;96985.06;;;20.55;100.00
20115;BME280;10218;42.874;25.320;2022-07-06T03:17:36;96982.09;;;20.68;100.00
20115;BME280;10218;42.874;25.320;2022-07-06T03:20:05;96984.78;;;20.68;100.00
20115;BME280;10218;42.874;25.320;2022-07-06T03:22:32;96979.47;;;20.73;100.00
20115;BME280;10218;42.874;25.320;2022-07-06T03:24:59;96988.91;;;20.82;100.00
20115;BME280;10218;42.874;25.320;2022-07-06T03:27:27;97000.38;;;21.13;100.00
20115;BME280;10218;42.874;25.320;2022-07-06T03:29:54;96998.63;;;21.07;100.00
20115;BME280;10218;42.874;25.320;2022-07-06T03:32:22;96997.25;;;20.92;100.00
20115;BME280;10218;42.874;25.320;2022-07-06T03:34:50;97003.34;;;20.71;100.00
20115;BME280;10218;42.874;25.320;2022-07-06T03:37:17;97002.62;;;20.76;100.00
20115;BME280;10218;42.874;25.320;2022-07-06T03:39:44;97003.94;;;21.02;100.00
20115;BME280;10218;42.874;25.320;2022-07-06T03:42:12;97013.66;;;20.98;100.00
20115;BME280;10218;42.874;25.320;2022-07-06T03:44:39;97015.69;;;20.90;100.00
20115;BME280;10218;42.874;25.320;2022-07-06T03:47:07;97007.53;;;20.90;100.00
20115;BME280;10218;42.874;25.320;2022-07-06T03:49:35;97022.44;;;21.28;100.00
20115;BME280;10218;42.874;25.320;2022-07-06T03:52:03;97024.16;;;21.34;100.00
20115;BME280;10218;42.874;25.320;2022-07-06T03:54:31;97017.19;;;21.38;100.00
20115;BME280;10218;42.874;25.320;2022-07-06T03:56:58;97014.06;;;21.46;100.00
20115;BME280;10218;42.874;25.320;2022-07-06T03:59:25;97017.62;;;21.63;100.00
20115;BME280;10218;42.874;25.320;2022-07-06T04:01:53;97011.09;;;21.64;100.00
20115;BME280;10218;42.874;25.320;2022-07-06T04:04:20;97012.78;;;21.82;100.00
20115;BME280;10218;42.874;25.320;2022-07-06T04:06:47;97007.72;;;21.57;100.00
20115;BME280;10218;42.874;25.320;2022-07-06T04:09:15;97004.44;;;21.55;100.00
20115;BME280;10218;42.874;25.320;2022-07-06T04:11:42;97011.75;;;21.38;100.00
20115;BME280;10218;42.874;25.320;2022-07-06T04:14:09;97016.38;;;21.71;100.00
20115;BME280;10218;42.874;25.320;2022-07-06T04:16:36;97022.13;;;22.03;100.00
20115;BME280;10218;42.874;25.320;2022-07-06T04:19:04;97020.19;;;21.87;100.00
20115;BME280;10218;42.874;25.320;2022-07-06T04:21:31;97015.19;;;21.79;100.00
20115;BME280;10218;42.874;25.320;2022-07-06T04:23:58;97025.09;;;22.01;100.00
20115;BME280;10218;42.874;25.320;2022-07-06T04:26:26;97026.22;;;21.89;100.00
20115;BME280;10218;42.874;25.320;2022-07-06T04:28:54;97023.84;;;22.09;100.00
20115;BME280;10218;42.874;25.320;2022-07-06T04:31:21;97022.09;;;21.86;100.00
20115;BME280;10218;42.874;25.320;2022-07-06T04:33:49;97021.53;;;22.01;100.00
20115;BME280;10218;42.874;25.320;2022-07-06T04:36:16;97021.37;;;22.07;100.00
20115;BME280;10218;42.874;25.320;2022-07-06T04:38:44;97025.25;;;22.11;100.00
20115;BME280;10218;42.874;25.320;2022-07-06T04:41:14;97037.44;;;22.26;100.00
20115;BME280;10218;42.874;25.320;2022-07-06T04:43:42;97034.41;;;22.60;100.00
20115;BME280;10218;42.874;25.320;2022-07-06T04:46:11;97041.78;;;22.82;100.00
20115;BME280;10218;42.874;25.320;2022-07-06T04:48:38;97033.75;;;22.92;100.00
20115;BME280;10218;42.874;25.320;2022-07-06T04:51:06;97035.81;;;23.28;100.00
20115;BME280;10218;42.874;25.320;2022-07-06T04:53:34;97031.50;;;23.06;100.00
20115;BME280;10218;42.874;25.320;2022-07-06T04:56:01;97031.62;;;22.94;100.00
20115;BME280;10218;42.874;25.320;2022-07-06T04:58:29;97024.94;;;23.28;100.00
20115;BME280;10218;42.874;25.320;2022-07-06T05:00:56;97024.38;;;22.83;100.00
20115;BME280;10218;42.874;25.320;2022-07-06T05:03:24;97032.12;;;23.93;100.00
20115;BME280;10218;42.874;25.320;2022-07-06T05:05:51;97031.44;;;23.76;100.00
20115;BME280;10218;42.874;25.320;2022-07-06T05:08:20;97032.53;;;24.07;100.00
20115;BME280;10218;42.874;25.320;2022-07-06T05:10:48;97041.69;;;23.42;100.00
20115;BME280;10218;42.874;25.320;2022-07-06T05:13:15;97041.59;;;24.12;100.00
20115;BME280;10218;42.874;25.320;2022-07-06T05:15:42;97045.97;;;24.92;100.00
20115;BME280;10218;42.874;25.320;2022-07-06T05:18:10;97045.91;;;24.82;100.00
20115;BME280;10218;42.874;25.320;2022-07-06T05:20:39;97042.28;;;25.19;100.00
20115;BME280;10218;42.874;25.320;2022-07-06T05:23:06;97042.75;;;25.05;100.00
20115;BME280;10218;42.874;25.320;2022-07-06T05:25:33;97040.97;;;25.51;100.00
20115;BME280;10218;42.874;25.320;2022-07-06T05:28:00;97051.75;;;23.90;100.00
20115;BME280;10218;42.874;25.320;2022-07-06T05:30:27;97060.09;;;24.37;100.00
20115;BME280;10218;42.874;25.320;2022-07-06T05:32:54;97057.75;;;24.56;100.00
20115;BME280;10218;42.874;25.320;2022-07-06T05:35:22;97057.88;;;24.76;100.00
20115;BME280;10218;42.874;25.320;2022-07-06T05:38:09;97050.63;;;24.50;100.00
20115;BME280;10218;42.874;25.320;2022-07-06T05:40:37;97067.44;;;25.26;100.00
20115;BME280;10218;42.874;25.320;2022-07-06T05:43:04;97065.66;;;25.62;100.00
20115;BME280;10218;42.874;25.320;2022-07-06T05:45:33;97064.13;;;25.19;100.00
20115;BME280;10218;42.874;25.320;2022-07-06T05:48:01;97068.88;;;24.86;100.00
20115;BME280;10218;42.874;25.320;2022-07-06T05:50:48;97072.41;;;24.45;100.00
20115;BME280;10218;42.874;25.320;2022-07-06T05:53:15;97083.13;;;23.39;100.00
20115;BME280;10218;42.874;25.320;2022-07-06T05:55:46;97076.78;;;24.14;100.00
20115;BME280;10218;42.874;25.320;2022-07-06T05:58:14;97069.63;;;24.08;100.00
20115;BME280;10218;42.874;25.320;2022-07-06T06:00:42;97076.69;;;23.72;100.00
20115;BME280;10218;42.874;25.320;2022-07-06T06:03:10;97065.28;;;24.81;100.00
20115;BME280;10218;42.874;25.320;2022-07-06T06:05:37;97066.37;;;25.32;100.00
20115;BME280;10218;42.874;25.320;2022-07-06T06:08:04;97068.81;;;24.76;100.00
20115;BME280;10218;42.874;25.320;2022-07-06T06:10:32;97076.06;;;24.97;100.00
20115;BME280;10218;42.874;25.320;2022-07-06T06:13:00;97072.63;;;24.75;100.00
20115;BME280;10218;42.874;25.320;2022-07-06T06:15:29;97069.72;;;25.54;100.00
20115;BME280;10218;42.874;25.320;2022-07-06T06:17:57;97073.00;;;24.47;100.00
20115;BME280;10218;42.874;25.320;2022-07-06T06:20:24;97067.34;;;25.05;100.00
20115;BME280;10218;42.874;25.320;2022-07-06T06:22:53;97074.66;;;23.89;100.00
20115;BME280;10218;42.874;25.320;2022-07-06T06:25:36;97072.47;;;24.92;100.00
20115;BME280;10218;42.874;25.320;2022-07-06T06:28:06;97072.13;;;25.35;100.00
20115;BME280;10218;42.874;25.320;2022-07-06T06:30:34;97070.56;;;25.54;100.00
20115;BME280;10218;42.874;25.320;2022-07-06T06:33:12;97068.47;;;26.07;100.00
20115;BME280;10218;42.874;25.320;2022-07-06T06:35:44;97075.84;;;26.17;100.00
20115;BME280;10218;42.874;25.320;2022-07-06T06:38:12;97066.84;;;26.36;99.13
20115;BME280;10218;42.874;25.320;2022-07-06T06:40:40;97066.22;;;25.64;100.00
20115;BME280;10218;42.874;25.320;2022-07-06T06:43:08;97059.56;;;25.39;100.00
20115;BME280;10218;42.874;25.320;2022-07-06T06:45:35;97069.84;;;26.05;100.00
20115;BME280;10218;42.874;25.320;2022-07-06T06:48:03;97078.31;;;26.08;100.00
20115;BME280;10218;42.874;25.320;2022-07-06T06:50:30;97075.88;;;26.27;100.00
20115;BME280;10218;42.874;25.320;2022-07-06T06:52:57;97064.06;;;26.01;100.00
20115;BME280;10218;42.874;25.320;2022-07-06T06:55:24;97069.84;;;25.94;100.00
20115;BME280;10218;42.874;25.320;2022-07-06T06:57:51;97058.31;;;25.82;100.00
20115;BME280;10218;42.874;25.320;2022-07-06T07:00:18;97074.28;;;25.23;100.00
20115;BME280;10218;42.874;25.320;2022-07-06T07:02:46;97058.28;;;25.62;100.00
20115;BME280;10218;42.874;25.320;2022-07-06T07:05:14;97067.75;;;25.29;100.00
20115;BME280;10218;42.874;25.320;2022-07-06T07:07:41;97070.72;;;25.23;100.00
20115;BME280;10218;42.874;25.320;2022-07-06T07:10:08;97075.31;;;26.15;100.00
20115;BME280;10218;42.874;25.320;2022-07-06T07:12:42;97077.31;;;25.32;100.00
20115;BME280;10218;42.874;25.320;2022-07-06T07:15:10;97081.09;;;24.74;100.00
20115;BME280;10218;42.874;25.320;2022-07-06T07:17:38;97076.84;;;24.51;100.00
20115;BME280;10218;42.874;25.320;2022-07-06T07:20:06;97071.53;;;24.34;100.00
20115;BME280;10218;42.874;25.320;2022-07-06T07:22:33;97080.47;;;25.03;100.00
20115;BME280;10218;42.874;25.320;2022-07-06T07:25:00;97083.19;;;24.24;100.00
20115;BME280;10218;42.874;25.320;2022-07-06T07:27:28;97077.84;;;24.40;100.00
20115;BME280;10218;42.874;25.320;2022-07-06T07:29:55;97083.69;;;24.95;100.00
20115;BME280;10218;42.874;25.320;2022-07-06T07:32:22;97091.25;;;24.78;100.00
20115;BME280;10218;42.874;25.320;2022-07-06T07:34:49;97085.97;;;24.29;100.00
20115;BME280;10218;42.874;25.320;2022-07-06T07:37:16;97084.84;;;24.62;100.00
20115;BME280;10218;42.874;25.320;2022-07-06T07:39:43;97090.50;;;24.51;100.00
20115;BME280;10218;42.874;25.320;2022-07-06T07:42:10;97088.84;;;24.50;100.00
20115;BME280;10218;42.874;25.320;2022-07-06T07:44:41;97099.56;;;24.24;100.00
20115;BME280;10218;42.874;25.320;2022-07-06T07:47:08;97088.47;;;23.77;100.00
20115;BME280;10218;42.874;25.320;2022-07-06T07:49:35;97090.69;;;24.07;100.00
20115;BME280;10218;42.874;25.320;2022-07-06T07:52:03;97089.19;;;23.95;100.00
20115;BME280;10218;42.874;25.320;2022-07-06T07:54:30;97097.81;;;24.13;100.00
20115;BME280;10218;42.874;25.320;2022-07-06T07:56:57;97097.50;;;24.37;100.00
20115;BME280;10218;42.874;25.320;2022-07-06T07:59:24;97096.34;;;24.69;100.00
20115;BME280;10218;42.874;25.320;2022-07-06T08:01:52;97082.59;;;24.54;100.00
20115;BME280;10218;42.874;25.320;2022-07-06T08:04:19;97086.56;;;24.37;100.00
20115;BME280;10218;42.874;25.320;2022-07-06T08:06:46;97088.53;;;24.41;100.00
20115;BME280;10218;42.874;25.320;2022-07-06T08:09:14;97089.13;;;24.90;100.00
20115;BME280;10218;42.874;25.320;2022-07-06T08:11:43;97097.13;;;24.60;100.00
20115;BME280;10218;42.874;25.320;2022-07-06T08:14:09;97099.09;;;24.69;100.00
20115;BME280;10218;42.874;25.320;2022-07-06T08:16:36;97103.16;;;24.62;100.00
20115;BME280;10218;42.874;25.320;2022-07-06T08:19:04;97105.06;;;25.03;100.00
20115;BME280;10218;42.874;25.320;2022-07-06T08:21:34;97101.34;;;25.30;100.00
20115;BME280;10218;42.874;25.320;2022-07-06T08:24:01;97107.97;;;24.50;100.00
20115;BME280;10218;42.874;25.320;2022-07-06T08:26:29;97100.88;;;25.48;100.00
20115;BME280;10218;42.874;25.320;2022-07-06T08:28:56;97106.16;;;24.28;100.00
20115;BME280;10218;42.874;25.320;2022-07-06T08:31:23;97094.31;;;24.50;100.00
20115;BME280;10218;42.874;25.320;2022-07-06T08:34:10;97108.72;;;25.19;100.00
20115;BME280;10218;42.874;25.320;2022-07-06T08:36:37;97105.19;;;24.45;100.00
20115;BME280;10218;42.874;25.320;2022-07-06T08:39:04;97115.78;;;24.36;100.00
20115;BME280;10218;42.874;25.320;2022-07-06T08:41:32;97115.09;;;24.88;100.00
20115;BME280;10218;42.874;25.320;2022-07-06T08:43:59;97112.09;;;25.51;100.00
20115;BME280;10218;42.874;25.320;2022-07-06T08:46:27;97108.50;;;26.28;98.50
20115;BME280;10218;42.874;25.320;2022-07-06T08:48:56;97097.28;;;26.40;97.88
20115;BME280;10218;42.874;25.320;2022-07-06T08:51:24;97110.66;;;26.52;94.79
20115;BME280;10218;42.874;25.320;2022-07-06T08:53:54;97107.06;;;25.90;97.27
20115;BME280;10218;42.874;25.320;2022-07-06T08:56:23;97115.34;;;26.36;94.71
20115;BME280;10218;42.874;25.320;2022-07-06T08:58:50;97118.56;;;27.04;86.98
20115;BME280;10218;42.874;25.320;2022-07-06T09:01:17;97118.09;;;26.61;93.95
20115;BME280;10218;42.874;25.320;2022-07-06T09:03:47;97123.81;;;26.75;91.80
20115;BME280;10218;42.874;25.320;2022-07-06T09:06:16;97121.28;;;25.92;98.33
20115;BME280;10218;42.874;25.320;2022-07-06T09:08:47;97118.47;;;24.63;100.00
20115;BME280;10218;42.874;25.320;2022-07-06T09:11:15;97129.47;;;24.73;100.00
20115;BME280;10218;42.874;25.320;2022-07-06T09:13:42;97128.13;;;24.81;100.00
20115;BME280;10218;42.874;25.320;2022-07-06T09:16:12;97128.84;;;24.66;100.00
20115;BME280;10218;42.874;25.320;2022-07-06T09:19:01;97130.66;;;24.87;100.00
20115;BME280;10218;42.874;25.320;2022-07-06T09:21:30;97133.69;;;24.91;100.00
20115;BME280;10218;42.874;25.320;2022-07-06T09:24:01;97128.69;;;23.87;100.00
20115;BME280;10218;42.874;25.320;2022-07-06T09:26:31;97131.00;;;24.27;100.00
20115;BME280;10218;42.874;25.320;2022-07-06T09:28:58;97136.53;;;24.10;100.00
20115;BME280;10218;42.874;25.320;2022-07-06T09:31:28;97134.47;;;23.69;100.00
20115;BME280;10218;42.874;25.320;2022-07-06T09:34:06;97135.59;;;24.21;100.00
20115;BME280;10218;42.874;25.320;2022-07-06T09:36:46;97142.00;;;24.37;100.00
20115;BME280;10218;42.874;25.320;2022-07-06T09:39:25;97135.41;;;24.06;100.00
20115;BME280;10218;42.874;25.320;2022-07-06T09:41:55;97142.06;;;24.42;100.00
20115;BME280;10218;42.874;25.320;2022-07-06T09:44:30;97142.56;;;24.76;100.00
20115;BME280;10218;42.874;25.320;2022-07-06T09:47:00;97144.41;;;24.34;100.00
20115;BME280;10218;42.874;25.320;2022-07-06T09:49:29;97145.72;;;23.99;100.00
20115;BME280;10218;42.874;25.320;2022-07-06T09:51:58;97133.16;;;23.71;100.00
20115;BME280;10218;42.874;25.320;2022-07-06T09:54:26;97125.09;;;23.60;100.00
20115;BME280;10218;42.874;25.320;2022-07-06T09:56:54;97135.22;;;23.86;100.00
20115;BME280;10218;42.874;25.320;2022-07-06T09:59:27;97134.28;;;24.02;100.00
20115;BME280;10218;42.874;25.320;2022-07-06T10:01:59;97130.97;;;24.96;100.00
20115;BME280;10218;42.874;25.320;2022-07-06T10:04:28;97129.84;;;24.55;100.00
20115;BME280;10218;42.874;25.320;2022-07-06T10:06:57;97122.56;;;24.34;100.00
20115;BME280;10218;42.874;25.320;2022-07-06T10:09:26;97131.19;;;23.94;100.00
20115;BME280;10218;42.874;25.320;2022-07-06T10:11:58;97141.19;;;24.10;100.00
20115;BME280;10218;42.874;25.320;2022-07-06T10:14:30;97128.34;;;24.74;100.00
20115;BME280;10218;42.874;25.320;2022-07-06T10:16:59;97132.22;;;24.78;100.00
20115;BME280;10218;42.874;25.320;2022-07-06T10:19:29;97127.72;;;24.62;100.00
20115;BME280;10218;42.874;25.320;2022-07-06T10:21:59;97124.22;;;24.66;100.00
20115;BME280;10218;42.874;25.320;2022-07-06T10:24:28;97119.06;;;25.17;100.00
20115;BME280;10218;42.874;25.320;2022-07-06T10:26:55;97117.00;;;25.39;100.00
20115;BME280;10218;42.874;25.320;2022-07-06T10:29:24;97115.09;;;25.45;98.72
20115;BME280;10218;42.874;25.320;2022-07-06T10:31:53;97114.91;;;24.62;100.00
20115;BME280;10218;42.874;25.320;2022-07-06T10:34:21;97115.53;;;24.38;100.00
20115;BME280;10218;42.874;25.320;2022-07-06T10:36:52;97114.09;;;24.67;100.00
20115;BME280;10218;42.874;25.320;2022-07-06T10:39:38;97114.50;;;25.33;100.00
20115;BME280;10218;42.874;25.320;2022-07-06T10:42:42;97108.34;;;25.58;96.79
20115;BME280;10218;42.874;25.320;2022-07-06T10:45:12;97102.22;;;24.46;100.00
20115;BME280;10218;42.874;25.320;2022-07-06T10:47:41;97108.47;;;24.42;100.00
20115;BME280;10218;42.874;25.320;2022-07-06T10:50:10;97100.78;;;24.76;100.00
20115;BME280;10218;42.874;25.320;2022-07-06T10:52:52;97105.37;;;24.70;100.00
20115;BME280;10218;42.874;25.320;2022-07-06T10:55:35;97098.75;;;24.24;100.00
20115;BME280;10218;42.874;25.320;2022-07-06T10:58:04;97098.75;;;24.61;100.00
20115;BME280;10218;42.874;25.320;2022-07-06T11:01:01;97094.59;;;24.53;100.00
20115;BME280;10218;42.874;25.320;2022-07-06T11:06:11;97082.47;;;26.26;95.36
20115;BME280;10218;42.874;25.320;2022-07-06T11:16:21;97099.47;;;24.83;100.00
20115;BME280;10218;42.874;25.320;2022-07-06T11:19:00;97087.59;;;25.14;100.00
20115;BME280;10218;42.874;25.320;2022-07-06T11:21:50;97092.75;;;25.01;100.00
20115;BME280;10218;42.874;25.320;2022-07-06T11:24:21;97084.56;;;25.68;100.00
20115;BME280;10218;42.874;25.320;2022-07-06T11:26:50;97083.47;;;25.69;100.00
20115;BME280;10218;42.874;25.320;2022-07-06T11:29:19;97086.28;;;26.05;100.00
20115;BME280;10218;42.874;25.320;2022-07-06T11:31:50;97083.00;;;26.53;95.04
20115;BME280;10218;42.874;25.320;2022-07-06T11:34:21;97079.19;;;25.26;100.00
20115;BME280;10218;42.874;25.320;2022-07-06T11:37:15;97082.50;;;25.28;100.00
20115;BME280;10218;42.874;25.320;2022-07-06T11:39:43;97081.00;;;25.00;100.00
20115;BME280;10218;42.874;25.320;2022-07-06T11:42:12;97085.88;;;24.93;100.00
20115;BME280;10218;42.874;25.320;2022-07-06T11:44:40;97077.75;;;25.03;100.00
20115;BME280;10218;42.874;25.320;2022-07-06T11:47:09;97078.06;;;25.17;100.00
20115;BME280;10218;42.874;25.320;2022-07-06T11:49:38;97072.56;;;25.12;100.00
20115;BME280;10218;42.874;25.320;2022-07-06T11:52:15;97072.53;;;24.60;100.00
20115;BME280;10218;42.874;25.320;2022-07-06T11:54:42;97066.09;;;25.28;100.00
20115;BME280;10218;42.874;25.320;2022-07-06T11:57:11;97062.53;;;25.33;100.00
20115;BME280;10218;42.874;25.320;2022-07-06T11:59:40;97059.37;;;25.71;100.00
20115;BME280;10218;42.874;25.320;2022-07-06T12:02:10;97060.75;;;24.54;100.00
20115;BME280;10218;42.874;25.320;2022-07-06T12:04:39;97067.47;;;24.79;100.00
20115;BME280;10218;42.874;25.320;2022-07-06T12:07:14;97069.53;;;25.03;100.00
20115;BME280;10218;42.874;25.320;2022-07-06T12:09:45;97065.41;;;25.01;100.00
20115;BME280;10218;42.874;25.320;2022-07-06T12:12:12;97057.19;;;25.63;100.00
20115;BME280;10218;42.874;25.320;2022-07-06T12:14:42;97052.59;;;26.09;100.00
20115;BME280;10218;42.874;25.320;2022-07-06T12:17:12;97057.50;;;25.82;100.00
20115;BME280;10218;42.874;25.320;2022-07-06T12:19:41;97053.81;;;25.41;100.00
20115;BME280;10218;42.874;25.320;2022-07-06T12:22:09;97051.63;;;25.38;100.00
20115;BME280;10218;42.874;25.320;2022-07-06T12:24:37;97049.81;;;25.69;100.00
20115;BME280;10218;42.874;25.320;2022-07-06T12:27:16;97054.34;;;25.38;100.00
20115;BME280;10218;42.874;25.320;2022-07-06T12:29:44;97055.34;;;26.19;97.52
20115;BME280;10218;42.874;25.320;2022-07-06T12:34:42;97045.81;;;25.19;100.00
20115;BME280;10218;42.874;25.320;2022-07-06T12:37:11;97038.50;;;25.45;100.00
20115;BME280;10218;42.874;25.320;2022-07-06T12:39:43;97037.25;;;25.88;100.00
20115;BME280;10218;42.874;25.320;2022-07-06T12:42:13;97033.16;;;25.95;100.00
20115;BME280;10218;42.874;25.320;2022-07-06T12:44:48;97028.78;;;25.84;100.00
20115;BME280;10218;42.874;25.320;2022-07-06T12:47:24;97022.16;;;25.70;99.08
20115;BME280;10218;42.874;25.320;2022-07-06T12:50:09;97021.09;;;26.12;94.47
20115;BME280;10218;42.874;25.320;2022-07-06T12:52:37;97017.06;;;27.14;87.92
20115;BME280;10218;42.874;25.320;2022-07-06T12:55:06;97021.31;;;28.28;77.44
20115;BME280;10218;42.874;25.320;2022-07-06T12:57:48;97010.47;;;29.61;67.21
20115;BME280;10218;42.874;25.320;2022-07-06T13:00:16;97014.31;;;28.07;72.88
20115;BME280;10218;42.874;25.320;2022-07-06T13:02:46;97014.22;;;28.22;70.68